FNKU

Kuito Airport

Kuito, Angola
METAR FNKU 221100Z 11010KT 7000 DZ FEW014 SCT060 18/17 Q1021
Observed Flight Rules
Oct-22 @ 11:00 UTC (3 hours ago) Marginal Visual Flight Rules
Wind Visibility Clouds Conditions
110° at 10 knots 7,001 meters
  • Few at 1,400' AGL
  • Scattered at 6,000' AGL
  • Drizzle
Temperatures Readings
Current 18°C / 64°F
Dewpoint 17°C / 63°F
Humidity 94%
Altimeter 30.15" Hg
Pressure 1021 hPa
Elevation 1699
METAR FNKU 221100Z 11010KT 7000 DZ FEW014 SCT060 18/17 Q1021
Observed Flight Rules
Oct-22 @ 11:00 UTC
(3 hours ago)
MVFR
Wind Visibility
110° at 10 knots 7,001 meters
Clouds
  • Few at 1,400' AGL
  • Scattered at 6,000' AGL
Conditions
  • Drizzle
Temperature Dewpoint
18°C / 64°F 17°C / 63°F
Humidity Altimeter Pressure
94% 30.15" Hg 1021 hPa